Airfield :
LOGIN :

Register | Disclaimer

   EN    FR    IT 

 










Legend :    VFR   Marginal VFR   IFR   Intensive IFR   Very Intensive IFR
Visi :
Ceiling :
>= 8 km
>= 3000ft
5 to 8 km
1000 to 3000 ft
1500m to 5 km
500 to 1000 ft
800 to 1500m
200 to 500 ft
< 800m
< 200 ft
Symbols :   Thunderstorms  Fog  Heavy snow  Heavy precipitations  Wind > 20 kt
SIGMETs :     Misc.  Thunderstorms  Icing  Turbulence  Mountain Waves  Volcanic Ashes







- Airport Elevation : 125 ft
- IATA code : MGL


EDLN - Mönchengladbach

CURRENT METAR :
  • 262050Z AUTO 25009KT 220V300 9999 // OVC068/// 18/11 Q1011

EXPIRED METARs :
  • 262020Z AUTO 26008KT 220V300 9999 // OVC064/// 18/11 Q1011
  • 261950Z AUTO 24007KT 210V290 9999 // BKN061/// 18/09 Q1010
  • 261920Z AUTO 24006KT 210V280 9999 // NCD 19/09 Q1010
  • 261850Z AUTO 24010KT 200V280 9999 // NCD 20/09 Q1010
  • 261820Z 23010KT 190V290 9999 FEW046 20/11 Q1011
  • 261750Z 23006KT 190V260 CAVOK 21/12 Q1011

TAF TAF EDLN
Valid from the 26 at 18:00 until the 27 at 03:00 UTC


261700Z 2618/2703 24007KT 9999 SCT030
BECMG 2622/2701 BKN012
PROB30
TEMPO 2623/2703 RA BKN006
No reported NOTAMs for that airfield.



MET'MAP, your aeronautical weather chart ! - Copyright ORBIFLY December 2007 - Disclaimer

ORBIFLY MET'MAP TEAM :

Programming & Development : Alexandra Zaïnal
Concept & Development : Baudouin d'Aumeries
Co-Development & Prog : Marc-Olivier Méhu
Technical & hardware support : Manuel Goepfert

Contact : metmap@orbifly.com




SOURCES & CREDITS :

   NOAA